Wood Heights, Missouri
Current Conditions -  °F | °C
As of 4:15 AM on Tuesday 21 Oct 2014 (Local Time) from KGPH Reporting Station
Haze Haze  
Wind Chill: 41°   Ceiling: Unl
Heat Index: 41°   Visibility: 5mi
Dew Point: 41°   Wind: 0mph
Humidity: 100%   Direction: NA
Pressure: 30.08"   Gusts: NA
Location:  39.3039°N, 94.2206°W
Report Text: KGPH 210915Z AUTO 00000KT 5SM BR CLR 05/05 A3008 RMK AO2
Loading
Personal Weather Stations






























Interactive Weather Map
Tropical Storm Tracking
New forecast layout! Learn more

10-Day Weather Forecast

Advertisements
Track Severe Weather on mobile